createdAt,value
2023-10-28T00:04:01.075Z,99
2023-10-28T00:14:01.065Z,99
2023-10-28T00:24:01.048Z,99
2023-10-28T00:34:01.041Z,99
2023-10-28T00:44:01.004Z,99
2023-10-28T00:54:01.053Z,99
2023-10-28T01:04:01.014Z,99
2023-10-28T01:14:00.956Z,99
2023-10-28T01:24:00.975Z,99
2023-10-28T01:34:00.948Z,99
2023-10-28T01:44:00.957Z,99
2023-10-28T01:54:00.954Z,99
2023-10-28T02:04:00.954Z,99
2023-10-28T02:14:00.949Z,99
2023-10-28T02:24:00.929Z,99
2023-10-28T02:34:00.924Z,99
2023-10-28T02:44:00.917Z,99
2023-10-28T02:54:00.876Z,99
2023-10-28T03:04:00.884Z,99
2023-10-28T03:14:01.367Z,99
2023-10-28T03:24:00.864Z,99
2023-10-28T03:34:00.895Z,99
2023-10-28T03:44:00.866Z,99
2023-10-28T03:54:00.840Z,99
2023-10-28T04:04:01.255Z,99
2023-10-28T04:14:02.769Z,99
2023-10-28T04:24:00.779Z,99
2023-10-28T04:34:00.795Z,99
2023-10-28T04:44:01.203Z,98
2023-10-28T04:54:00.793Z,98
2023-10-28T05:04:00.827Z,98
2023-10-28T05:14:00.761Z,98
2023-10-28T05:24:01.145Z,98
2023-10-28T05:34:02.671Z,99
2023-10-28T05:44:00.727Z,99
2023-10-28T05:54:01.155Z,98
2023-10-28T06:04:00.855Z,98
2023-10-28T06:14:00.701Z,99
2023-10-28T06:24:00.744Z,99
2023-10-28T06:34:01.134Z,99
2023-10-28T06:44:00.678Z,99
2023-10-28T06:54:00.666Z,99
2023-10-28T07:04:00.694Z,99
2023-10-28T07:14:00.623Z,99
2023-10-28T07:24:00.650Z,99
2023-10-28T07:34:00.604Z,99
2023-10-28T07:44:00.612Z,99
2023-10-28T07:54:00.593Z,99
2023-10-28T08:04:00.629Z,99
2023-10-28T08:14:01.140Z,99
2023-10-28T08:24:00.538Z,99
2023-10-28T08:34:01.022Z,99
2023-10-28T08:44:00.566Z,99
2023-10-28T08:54:00.571Z,99
2023-10-28T09:04:00.659Z,99
2023-10-28T09:14:00.949Z,99
2023-10-28T09:24:00.505Z,99
2023-10-28T09:34:00.467Z,99
2023-10-28T09:44:00.937Z,99
2023-10-28T09:54:00.477Z,98
2023-10-28T10:04:00.461Z,98
2023-10-28T10:14:00.447Z,98
2023-10-28T10:24:00.408Z,98
2023-10-28T10:34:12.444Z,97
2023-10-28T10:44:00.804Z,97
2023-10-28T10:54:00.386Z,97
2023-10-28T11:04:00.366Z,95
2023-10-28T11:14:00.369Z,95
2023-10-28T11:24:00.783Z,95
2023-10-28T11:34:00.394Z,95
2023-10-28T11:44:00.722Z,95
2023-10-28T11:54:00.335Z,95
2023-10-28T12:04:00.313Z,96
2023-10-28T12:14:00.741Z,96
2023-10-28T12:24:00.701Z,96
2023-10-28T12:34:00.220Z,96
2023-10-28T12:44:00.212Z,96
2023-10-28T12:54:00.226Z,96
2023-10-28T13:04:00.326Z,95
2023-10-28T13:14:00.183Z,94
2023-10-28T13:24:00.165Z,93
2023-10-28T13:34:00.164Z,92
2023-10-28T13:44:00.170Z,92
2023-10-28T13:54:00.139Z,93
2023-10-28T14:04:00.717Z,91
2023-10-28T14:14:00.118Z,89
2023-10-28T14:24:00.154Z,88
2023-10-28T14:34:00.501Z,85
2023-10-28T14:44:01.928Z,84
2023-10-28T14:54:03.222Z,81
2023-10-28T15:04:00.214Z,78
2023-10-28T15:14:00.388Z,77
2023-10-28T15:23:59.984Z,76
2023-10-28T15:33:59.972Z,75
2023-10-28T15:44:02.495Z,75
2023-10-28T15:53:59.912Z,74
2023-10-28T16:04:00.011Z,74
2023-10-28T16:13:59.869Z,74
2023-10-28T16:23:59.887Z,75
2023-10-28T16:33:59.863Z,75
2023-10-28T16:44:00.238Z,76
2023-10-28T16:53:59.828Z,76
2023-10-28T17:04:01.009Z,76
2023-10-28T17:13:59.796Z,77
2023-10-28T17:23:59.788Z,77
2023-10-28T17:33:59.773Z,77
2023-10-28T17:43:59.719Z,78
2023-10-28T17:54:00.200Z,78
2023-10-28T18:03:59.857Z,78
2023-10-28T18:14:00.146Z,78
2023-10-28T18:23:59.706Z,77
2023-10-28T18:33:59.706Z,76
2023-10-28T18:43:59.627Z,76
2023-10-28T18:53:59.662Z,74
2023-10-28T19:03:59.737Z,72
2023-10-28T19:13:59.603Z,73
2023-10-28T19:23:59.719Z,74
2023-10-28T19:34:01.604Z,74
2023-10-28T19:43:59.556Z,75
2023-10-28T19:54:00.004Z,75
2023-10-28T20:03:59.761Z,75
2023-10-28T20:13:59.516Z,76
2023-10-28T20:23:59.966Z,76
2023-10-28T20:34:01.470Z,77
2023-10-28T20:43:59.492Z,77
2023-10-28T20:53:59.950Z,77
2023-10-28T21:03:59.642Z,77
2023-10-28T21:13:59.448Z,77
2023-10-28T21:23:59.561Z,76
2023-10-28T21:33:59.477Z,76
2023-10-28T21:43:59.409Z,75
2023-10-28T21:53:59.389Z,75
2023-10-28T22:03:59.460Z,75
2023-10-28T22:13:59.803Z,75
2023-10-28T22:23:59.435Z,76
2023-10-28T22:33:59.367Z,75
2023-10-28T22:43:59.333Z,69
2023-10-28T22:53:59.413Z,64
2023-10-28T23:03:59.389Z,61
2023-10-28T23:13:59.280Z,59
2023-10-28T23:23:59.296Z,58
2023-10-28T23:33:59.269Z,57
2023-10-28T23:43:59.647Z,56
2023-10-28T23:53:59.256Z,56
